createdAt,value
2023-03-02T00:01:24.375Z,-0.55
2023-03-02T00:03:51.205Z,-0.57
2023-03-02T00:06:18.222Z,-0.59
2023-03-02T00:08:45.996Z,-0.61
2023-03-02T00:11:15.693Z,-0.59
2023-03-02T00:13:43.455Z,-0.57
2023-03-02T00:16:10.101Z,-0.57
2023-03-02T00:18:36.612Z,-0.55
2023-03-02T00:21:03.225Z,-0.60
2023-03-02T00:23:29.877Z,-0.64
2023-03-02T00:25:56.399Z,-0.63
2023-03-02T00:28:22.847Z,-0.58
2023-03-02T00:30:49.297Z,-0.54
2023-03-02T00:33:15.784Z,-0.58
2023-03-02T00:35:42.460Z,-0.56
2023-03-02T00:38:09.284Z,-0.50
2023-03-02T00:40:36.495Z,-0.47
2023-03-02T00:43:03.101Z,-0.49
2023-03-02T00:45:29.960Z,-0.45
2023-03-02T00:47:56.481Z,-0.45
2023-03-02T00:50:23.071Z,-0.45
2023-03-02T00:52:49.592Z,-0.47
2023-03-02T00:55:16.195Z,-0.49
2023-03-02T00:57:42.721Z,-0.50
2023-03-02T01:00:09.700Z,-0.48
2023-03-02T01:02:39.062Z,-0.50
2023-03-02T01:05:05.969Z,-0.50
2023-03-02T01:07:33.255Z,-0.52
2023-03-02T01:09:59.699Z,-0.54
2023-03-02T01:12:26.276Z,-0.55
2023-03-02T01:14:52.809Z,-0.61
2023-03-02T01:17:22.198Z,-0.65
2023-03-02T01:19:48.749Z,-0.69
2023-03-02T01:22:15.276Z,-0.71
2023-03-02T01:24:41.822Z,-0.67
2023-03-02T01:27:08.476Z,-0.67
2023-03-02T01:29:34.983Z,-0.72
2023-03-02T01:32:02.427Z,-0.64
2023-03-02T01:34:29.096Z,-0.67
2023-03-02T01:36:56.051Z,-0.68
2023-03-02T01:39:22.769Z,-0.68
2023-03-02T01:41:51.459Z,-0.71
2023-03-02T01:44:36.247Z,-0.75
2023-03-02T01:47:05.105Z,-0.79
2023-03-02T01:49:37.636Z,-0.83
2023-03-02T01:52:04.364Z,-0.84
2023-03-02T01:54:30.984Z,-0.81
2023-03-02T01:57:01.990Z,-0.85
2023-03-02T01:59:31.554Z,-0.83
2023-03-02T02:02:01.893Z,-0.83
2023-03-02T02:04:30.422Z,-0.83
2023-03-02T02:07:02.217Z,-0.87
2023-03-02T02:09:31.997Z,-0.87
2023-03-02T02:11:58.632Z,-0.90
2023-03-02T02:14:25.548Z,-0.93
2023-03-02T02:16:52.583Z,-0.90
2023-03-02T02:19:42.305Z,-0.86
2023-03-02T02:22:10.758Z,-0.84
2023-03-02T02:24:49.626Z,-0.85
2023-03-02T02:27:16.218Z,-0.78
2023-03-02T02:29:47.661Z,-0.76
2023-03-02T02:32:23.559Z,-0.78
2023-03-02T02:35:14.554Z,-0.80
2023-03-02T02:37:46.531Z,-0.77
2023-03-02T02:40:18.590Z,-0.79
2023-03-02T02:42:49.798Z,-0.77
2023-03-02T02:45:22.390Z,-0.81
2023-03-02T02:47:50.281Z,-0.80
2023-03-02T02:50:20.711Z,-0.77
2023-03-02T02:52:53.915Z,-0.78
2023-03-02T02:55:23.299Z,-0.80
2023-03-02T02:57:53.551Z,-0.87
2023-03-02T03:00:22.248Z,-0.88
2023-03-02T03:02:54.082Z,-0.94
2023-03-02T03:05:20.604Z,-0.93
2023-03-02T03:07:47.270Z,-0.98
2023-03-02T03:10:39.829Z,-0.94
2023-03-02T03:13:09.218Z,-0.94
2023-03-02T03:15:36.337Z,-0.93
2023-03-02T03:18:02.864Z,-0.93
2023-03-02T03:20:29.856Z,-0.98
2023-03-02T03:22:59.294Z,-0.97
2023-03-02T03:25:26.578Z,-0.94
2023-03-02T03:27:53.109Z,-0.93
2023-03-02T03:30:19.748Z,-0.93
2023-03-02T03:32:46.349Z,-0.96
2023-03-02T03:35:13.157Z,-0.98
2023-03-02T03:37:41.237Z,-1.03
2023-03-02T03:40:09.900Z,-1.05
2023-03-02T03:42:38.063Z,-1.04
2023-03-02T03:45:05.967Z,-1.04
2023-03-02T03:47:32.449Z,-1.05
2023-03-02T03:49:58.927Z,-1.09
2023-03-02T03:52:31.420Z,-1.07
2023-03-02T03:54:59.915Z,-1.10
2023-03-02T03:57:27.825Z,-1.16
2023-03-02T03:59:54.690Z,-1.15
2023-03-02T04:02:21.984Z,-1.10
2023-03-02T04:04:48.598Z,-1.05
2023-03-02T04:07:15.211Z,-1.05
2023-03-02T04:09:41.805Z,-1.04
2023-03-02T04:12:09.604Z,-0.97
2023-03-02T04:14:36.306Z,-0.90
2023-03-02T04:17:05.412Z,-0.88
2023-03-02T04:19:32.471Z,-0.96
2023-03-02T04:21:59.593Z,-1.02
2023-03-02T04:24:26.123Z,-1.08
2023-03-02T04:26:52.783Z,-1.04
2023-03-02T04:29:19.762Z,-1.04
2023-03-02T04:31:46.511Z,-1.00
2023-03-02T04:34:13.155Z,-0.97
2023-03-02T04:36:40.318Z,-1.01
2023-03-02T04:39:08.433Z,-1.01
2023-03-02T04:41:35.568Z,-0.95
2023-03-02T04:44:02.362Z,-0.99
2023-03-02T04:46:29.152Z,-1.03
2023-03-02T04:48:55.761Z,-1.11
2023-03-02T04:51:25.989Z,-1.21
2023-03-02T04:53:54.925Z,-1.20
2023-03-02T04:56:22.045Z,-1.27
2023-03-02T04:58:48.565Z,-1.31
2023-03-02T05:01:16.668Z,-1.31
2023-03-02T05:03:43.208Z,-1.35
2023-03-02T05:06:10.596Z,-1.33
2023-03-02T05:08:37.581Z,-1.39
2023-03-02T05:11:04.952Z,-1.40
2023-03-02T05:13:31.400Z,-1.40
2023-03-02T05:15:58.499Z,-1.35
2023-03-02T05:18:25.654Z,-1.45
2023-03-02T05:20:53.652Z,-1.47
2023-03-02T05:23:25.713Z,-1.52
2023-03-02T05:25:54.672Z,-1.54
2023-03-02T05:28:23.226Z,-1.52
2023-03-02T05:30:50.010Z,-1.50
2023-03-02T05:33:17.110Z,-1.47
2023-03-02T05:35:44.394Z,-1.48
2023-03-02T05:38:11.800Z,-1.49
2023-03-02T05:40:39.183Z,-1.46
2023-03-02T05:43:06.437Z,-1.44
2023-03-02T05:45:36.178Z,-1.43
2023-03-02T05:48:03.553Z,-1.48
2023-03-02T05:50:30.420Z,-1.52
2023-03-02T05:52:58.219Z,-1.52
2023-03-02T05:55:24.814Z,-1.55
2023-03-02T05:57:51.275Z,-1.57
2023-03-02T06:00:18.687Z,-1.52
2023-03-02T06:02:45.236Z,-1.59
2023-03-02T06:05:15.228Z,-1.59
2023-03-02T06:07:41.896Z,-1.59
2023-03-02T06:10:10.155Z,-1.63
2023-03-02T06:12:36.938Z,-1.67
2023-03-02T06:15:05.517Z,-1.57
2023-03-02T06:17:32.321Z,-1.57
2023-03-02T06:19:58.777Z,-1.58
2023-03-02T06:22:25.420Z,-1.57
2023-03-02T06:24:51.971Z,-1.58
2023-03-02T06:27:18.700Z,-1.56
2023-03-02T06:29:45.219Z,-1.61
2023-03-02T06:32:11.848Z,-1.61
2023-03-02T06:34:38.423Z,-1.63
2023-03-02T06:37:04.914Z,-1.63
2023-03-02T06:39:31.516Z,-1.65
2023-03-02T06:41:59.264Z,-1.67
2023-03-02T06:44:25.764Z,-1.69
2023-03-02T06:46:52.249Z,-1.69
2023-03-02T06:53:09.578Z,-1.64
2023-03-02T06:55:36.111Z,-1.65
2023-03-02T06:58:02.532Z,-1.59
2023-03-02T07:00:29.203Z,-1.44
2023-03-02T07:02:56.551Z,-1.39
2023-03-02T07:05:24.451Z,-1.42
2023-03-02T07:07:51.020Z,-1.35
2023-03-02T07:10:17.738Z,-1.30
2023-03-02T07:12:44.466Z,-1.24
2023-03-02T07:15:12.306Z,-1.22
2023-03-02T07:17:39.769Z,-1.18
2023-03-02T07:20:07.058Z,-1.12
2023-03-02T07:22:33.787Z,-1.07
2023-03-02T07:25:01.624Z,-1.01
2023-03-02T07:28:26.531Z,-0.96
2023-03-02T07:30:54.072Z,-0.89
2023-03-02T07:33:21.395Z,-0.83
2023-03-02T07:35:48.530Z,-0.79
2023-03-02T07:38:15.123Z,-0.76
2023-03-02T07:41:25.194Z,-0.67
2023-03-02T07:43:51.693Z,-0.63
2023-03-02T07:46:18.224Z,-0.57
2023-03-02T07:48:44.756Z,-0.54
2023-03-02T07:51:11.215Z,-0.46
2023-03-02T07:53:38.488Z,-0.42
2023-03-02T07:56:10.212Z,-0.37
2023-03-02T07:58:37.571Z,-0.31
2023-03-02T08:01:04.690Z,-0.26
2023-03-02T08:03:31.305Z,-0.19
2023-03-02T08:05:57.931Z,-0.14
2023-03-02T08:08:24.548Z,-0.07
2023-03-02T08:10:51.163Z,0.00
2023-03-02T08:13:17.929Z,0.04
2023-03-02T08:15:44.487Z,0.12
2023-03-02T08:18:11.005Z,0.17
2023-03-02T08:20:38.156Z,0.30
2023-03-02T08:23:04.601Z,0.37
2023-03-02T08:25:31.155Z,0.50
2023-03-02T08:27:57.653Z,0.57
2023-03-02T08:30:24.152Z,0.63
2023-03-02T08:32:50.787Z,0.67
2023-03-02T08:35:17.464Z,0.73
2023-03-02T08:37:43.993Z,0.82
2023-03-02T08:40:11.183Z,0.87
2023-03-02T08:42:37.700Z,0.91
2023-03-02T08:45:04.636Z,0.94
2023-03-02T08:47:32.585Z,0.97
2023-03-02T08:49:59.247Z,1.09
2023-03-02T08:52:25.748Z,1.16
2023-03-02T08:54:52.304Z,1.23
2023-03-02T08:57:20.404Z,1.26
2023-03-02T08:59:47.833Z,1.30
2023-03-02T09:02:14.302Z,1.42
2023-03-02T09:04:40.903Z,1.51
2023-03-02T09:07:07.493Z,1.52
2023-03-02T09:09:34.079Z,1.57
2023-03-02T09:12:00.684Z,1.57
2023-03-02T09:14:27.430Z,1.60
2023-03-02T09:16:54.452Z,1.66
2023-03-02T09:19:21.248Z,1.77
2023-03-02T09:21:47.759Z,1.80
2023-03-02T09:24:14.235Z,1.90
2023-03-02T09:26:40.882Z,1.95
2023-03-02T09:29:07.527Z,1.94
2023-03-02T09:31:36.494Z,1.96
2023-03-02T09:34:04.475Z,2.07
2023-03-02T09:36:32.782Z,2.10
2023-03-02T09:38:59.541Z,2.21
2023-03-02T09:41:40.085Z,2.26
2023-03-02T09:44:16.949Z,2.38
2023-03-02T09:46:53.962Z,2.44
2023-03-02T09:49:54.582Z,2.49
2023-03-02T09:52:30.357Z,2.54
2023-03-02T09:55:02.305Z,2.64
2023-03-02T09:57:33.851Z,2.73
2023-03-02T10:00:19.521Z,2.91
2023-03-02T10:02:51.169Z,3.05
2023-03-02T10:05:22.821Z,3.07
2023-03-02T10:07:49.785Z,3.07
2023-03-02T10:10:24.870Z,3.24
2023-03-02T10:13:00.568Z,3.40
2023-03-02T10:15:38.234Z,3.42
2023-03-02T10:18:13.890Z,3.50
2023-03-02T10:21:03.587Z,3.59
2023-03-02T10:23:33.061Z,3.76
2023-03-02T10:26:19.603Z,3.79
2023-03-02T10:28:56.870Z,3.88
2023-03-02T10:31:27.996Z,4.05
2023-03-02T10:33:55.395Z,4.26
2023-03-02T10:36:27.792Z,4.30
2023-03-02T10:38:55.627Z,4.36
2023-03-02T10:41:36.391Z,4.53
2023-03-02T10:44:07.842Z,4.48
2023-03-02T10:46:42.829Z,4.60
2023-03-02T10:49:24.991Z,4.74
2023-03-02T10:52:06.087Z,4.84
2023-03-02T10:54:34.494Z,4.97
2023-03-02T10:57:03.839Z,5.01
2023-03-02T10:59:43.575Z,5.09
2023-03-02T11:02:25.100Z,5.21
2023-03-02T11:05:10.772Z,5.22
2023-03-02T11:07:37.248Z,5.30
2023-03-02T11:10:19.101Z,5.43
2023-03-02T11:12:50.801Z,5.50
2023-03-02T11:15:25.546Z,5.63
2023-03-02T11:18:03.251Z,5.71
2023-03-02T11:20:34.939Z,5.83
2023-03-02T11:23:24.029Z,5.93
2023-03-02T11:30:25.909Z,6.22
2023-03-02T11:33:02.285Z,6.15
2023-03-02T11:35:37.779Z,6.19
2023-03-02T11:38:16.459Z,6.42
2023-03-02T11:41:12.359Z,6.47
2023-03-02T11:43:39.016Z,6.50
2023-03-02T11:46:13.835Z,6.56
2023-03-02T11:48:48.868Z,6.61
2023-03-02T11:51:26.440Z,6.73
2023-03-02T11:53:59.271Z,6.73
2023-03-02T11:56:31.263Z,6.76
2023-03-02T11:59:04.719Z,6.76
2023-03-02T12:01:35.011Z,6.91
2023-03-02T12:04:10.915Z,6.92
2023-03-02T12:06:40.946Z,7.10
2023-03-02T12:09:31.340Z,7.06
2023-03-02T12:12:32.812Z,7.12
2023-03-02T12:14:59.858Z,7.07
2023-03-02T12:17:26.347Z,7.10
2023-03-02T12:20:07.721Z,7.21
2023-03-02T12:22:35.078Z,7.34
2023-03-02T12:25:26.497Z,7.62
2023-03-02T12:27:54.929Z,7.63
2023-03-02T12:30:28.099Z,7.59
2023-03-02T12:33:11.559Z,7.55
2023-03-02T12:35:38.574Z,7.45
2023-03-02T12:38:26.756Z,7.55
2023-03-02T12:40:56.308Z,7.72
2023-03-02T12:43:28.176Z,7.72
2023-03-02T12:46:26.064Z,7.82
2023-03-02T12:49:11.571Z,7.88
2023-03-02T12:51:50.659Z,7.97
2023-03-02T12:54:19.575Z,7.99
2023-03-02T12:56:47.133Z,8.04
2023-03-02T12:59:25.780Z,8.06
2023-03-02T13:01:52.514Z,8.11
2023-03-02T13:04:25.039Z,8.14
2023-03-02T13:06:53.683Z,8.21
2023-03-02T13:09:21.665Z,8.30
2023-03-02T13:11:49.701Z,8.30
2023-03-02T13:14:24.531Z,8.34
2023-03-02T13:17:05.282Z,8.37
2023-03-02T13:19:33.044Z,8.47
2023-03-02T13:22:00.541Z,8.43
2023-03-02T13:24:34.659Z,8.46
2023-03-02T13:27:06.965Z,8.53
2023-03-02T13:29:33.900Z,8.47
2023-03-02T13:32:24.302Z,8.38
2023-03-02T13:35:02.457Z,8.32
2023-03-02T13:37:38.828Z,8.38
2023-03-02T13:40:30.796Z,8.40
2023-03-02T13:42:58.077Z,8.32
2023-03-02T13:45:26.084Z,8.40
2023-03-02T13:47:54.495Z,8.39
2023-03-02T13:50:25.778Z,8.28
2023-03-02T13:52:55.332Z,8.23
2023-03-02T13:55:22.343Z,8.34
2023-03-02T13:57:51.055Z,8.29
2023-03-02T14:00:36.332Z,8.19
2023-03-02T14:03:02.853Z,8.22
2023-03-02T14:05:35.540Z,8.28
2023-03-02T14:08:07.219Z,8.28
2023-03-02T14:10:33.711Z,8.25
2023-03-02T14:13:06.118Z,8.25
2023-03-02T14:15:32.780Z,8.25
2023-03-02T14:18:00.444Z,8.24
2023-03-02T14:20:26.969Z,8.29
2023-03-02T14:22:53.451Z,8.36
2023-03-02T14:25:20.611Z,8.23
2023-03-02T14:27:47.496Z,8.25
2023-03-02T14:30:20.466Z,8.29
2023-03-02T14:32:47.244Z,8.28
2023-03-02T14:35:16.580Z,8.18
2023-03-02T14:37:46.884Z,8.14
2023-03-02T14:40:28.406Z,8.11
2023-03-02T14:42:55.069Z,8.08
2023-03-02T14:45:22.006Z,7.98
2023-03-02T14:47:48.983Z,7.97
2023-03-02T14:50:16.921Z,7.88
2023-03-02T14:52:48.080Z,7.89
2023-03-02T14:55:23.710Z,7.91
2023-03-02T14:57:58.403Z,7.79
2023-03-02T15:00:25.868Z,7.78
2023-03-02T15:02:52.549Z,7.77
2023-03-02T15:05:19.648Z,7.74
2023-03-02T15:07:46.651Z,7.81
2023-03-02T15:10:19.860Z,7.79
2023-03-02T15:12:46.714Z,7.79
2023-03-02T15:15:13.634Z,7.79
2023-03-02T15:17:40.896Z,7.72
2023-03-02T15:20:10.012Z,7.68
2023-03-02T15:22:36.492Z,7.64
2023-03-02T15:25:03.048Z,7.69
2023-03-02T15:27:29.608Z,7.68
2023-03-02T15:29:57.020Z,7.62
2023-03-02T15:32:26.664Z,7.57
2023-03-02T15:34:56.000Z,7.54
2023-03-02T15:37:22.669Z,7.47
2023-03-02T15:39:54.272Z,7.42
2023-03-02T15:42:20.778Z,7.39
2023-03-02T15:44:47.408Z,7.39
2023-03-02T15:47:13.962Z,7.38
2023-03-02T15:49:40.601Z,7.37
2023-03-02T15:52:07.156Z,7.36
2023-03-02T15:54:33.663Z,7.31
2023-03-02T15:57:00.144Z,7.25
2023-03-02T15:59:28.816Z,7.22
2023-03-02T16:01:59.939Z,7.19
2023-03-02T16:04:27.770Z,7.15
2023-03-02T16:06:55.073Z,7.10
2023-03-02T16:09:22.336Z,7.06
2023-03-02T16:11:49.771Z,7.01
2023-03-02T16:14:16.377Z,6.96
2023-03-02T16:16:43.711Z,6.90
2023-03-02T16:19:17.725Z,6.86
2023-03-02T16:21:45.666Z,6.81
2023-03-02T16:24:13.099Z,6.75
2023-03-02T16:26:39.642Z,6.66
2023-03-02T16:29:08.120Z,6.61
2023-03-02T16:32:10.005Z,6.56
2023-03-02T16:35:33.219Z,6.47
2023-03-02T16:38:00.435Z,6.37
2023-03-02T16:40:27.728Z,6.29
2023-03-02T16:42:54.557Z,6.24
2023-03-02T16:45:52.491Z,6.16
2023-03-02T16:48:37.284Z,6.09
2023-03-02T16:51:04.882Z,6.02
2023-03-02T16:53:31.453Z,5.95
2023-03-02T16:55:57.929Z,5.86
2023-03-02T16:58:25.035Z,5.82
2023-03-02T17:00:51.655Z,5.78
2023-03-02T17:03:20.431Z,5.71
2023-03-02T17:05:46.978Z,5.64
2023-03-02T17:08:14.823Z,5.57
2023-03-02T17:10:42.312Z,5.49
2023-03-02T17:13:09.726Z,5.38
2023-03-02T17:15:36.295Z,5.33
2023-03-02T17:18:02.879Z,5.29
2023-03-02T17:20:29.416Z,5.21
2023-03-02T17:22:55.889Z,5.14
2023-03-02T17:25:22.932Z,5.07
2023-03-02T17:27:49.460Z,5.05
2023-03-02T17:30:16.468Z,4.97
2023-03-02T17:32:43.162Z,4.92
2023-03-02T17:35:12.134Z,4.94
2023-03-02T17:37:38.661Z,4.83
2023-03-02T17:40:06.665Z,4.76
2023-03-02T17:42:33.249Z,4.69
2023-03-02T17:45:00.021Z,4.57
2023-03-02T17:47:26.672Z,4.48
2023-03-02T17:49:53.215Z,4.51
2023-03-02T17:52:19.935Z,4.53
2023-03-02T17:54:46.509Z,4.49
2023-03-02T17:57:13.186Z,4.48
2023-03-02T17:59:39.672Z,4.37
2023-03-02T18:02:06.122Z,4.39
2023-03-02T18:04:32.671Z,4.32
2023-03-02T18:06:59.170Z,4.24
2023-03-02T18:09:25.701Z,4.23
2023-03-02T18:11:52.257Z,4.16
2023-03-02T18:14:20.424Z,4.14
2023-03-02T18:16:47.254Z,4.03
2023-03-02T18:19:13.844Z,4.03
2023-03-02T18:21:42.057Z,3.99
2023-03-02T18:24:09.481Z,3.94
2023-03-02T18:26:36.357Z,3.85
2023-03-02T18:33:11.023Z,3.77
2023-03-02T18:35:38.284Z,3.77
2023-03-02T18:38:05.078Z,3.73
2023-03-02T18:40:31.642Z,3.70
2023-03-02T18:42:58.350Z,3.65
2023-03-02T18:45:28.570Z,3.61
2023-03-02T18:47:55.858Z,3.56
2023-03-02T18:50:23.229Z,3.51
2023-03-02T18:52:52.852Z,3.43
2023-03-02T18:55:24.414Z,3.43
2023-03-02T18:57:53.798Z,3.40
2023-03-02T19:00:26.681Z,3.38
2023-03-02T19:02:56.816Z,3.28
2023-03-02T19:05:25.186Z,3.18
2023-03-02T19:07:51.725Z,3.24
2023-03-02T19:10:20.577Z,3.27
2023-03-02T19:12:48.048Z,3.19
2023-03-02T19:15:14.587Z,3.18
2023-03-02T19:17:45.872Z,3.08
2023-03-02T19:20:16.832Z,3.00
2023-03-02T19:22:43.355Z,2.99
2023-03-02T19:25:10.587Z,2.97
2023-03-02T19:27:37.747Z,2.99
2023-03-02T19:30:06.354Z,2.96
2023-03-02T19:32:33.188Z,2.93
2023-03-02T19:35:01.217Z,2.86
2023-03-02T19:37:27.693Z,2.80
2023-03-02T19:39:54.347Z,2.72
2023-03-02T19:42:20.871Z,2.65
2023-03-02T19:44:47.408Z,2.61
2023-03-02T19:47:13.976Z,2.55
2023-03-02T19:49:40.560Z,2.52
2023-03-02T19:52:07.026Z,2.50
2023-03-02T19:54:33.547Z,2.50
2023-03-02T19:57:00.160Z,2.54
2023-03-02T19:59:27.354Z,2.58
2023-03-02T20:01:55.425Z,2.55
2023-03-02T20:04:22.059Z,2.52
2023-03-02T20:06:48.584Z,2.46
2023-03-02T20:09:19.653Z,2.37
2023-03-02T20:11:47.401Z,2.29
2023-03-02T20:14:27.588Z,2.31
2023-03-02T20:16:59.632Z,2.26
2023-03-02T20:19:26.123Z,2.17
2023-03-02T20:21:52.564Z,2.19
2023-03-02T20:24:19.120Z,2.23
2023-03-02T20:26:45.865Z,2.18
2023-03-02T20:29:12.639Z,2.15
2023-03-02T20:31:39.749Z,2.08
2023-03-02T20:34:10.980Z,2.01
2023-03-02T20:36:38.048Z,2.08
2023-03-02T20:39:10.402Z,2.14
2023-03-02T20:41:37.015Z,2.17
2023-03-02T20:44:05.418Z,2.16
2023-03-02T20:46:36.112Z,2.17
2023-03-02T20:49:04.564Z,2.16
2023-03-02T20:51:31.279Z,2.13
2023-03-02T20:53:58.565Z,2.05
2023-03-02T20:56:25.570Z,2.04
2023-03-02T20:58:52.097Z,2.00
2023-03-02T21:01:19.829Z,1.94
2023-03-02T21:03:46.797Z,1.93
2023-03-02T21:06:15.255Z,1.90
2023-03-02T21:08:42.845Z,1.86
2023-03-02T21:11:12.739Z,1.88
2023-03-02T21:13:39.388Z,1.82
2023-03-02T21:16:08.557Z,1.82
2023-03-02T21:18:35.481Z,1.85
2023-03-02T21:21:03.132Z,1.78
2023-03-02T21:23:30.152Z,1.78
2023-03-02T21:25:57.201Z,1.74
2023-03-02T21:28:23.769Z,1.78
2023-03-02T21:30:50.579Z,1.75
2023-03-02T21:33:17.123Z,1.66
2023-03-02T21:35:46.331Z,1.70
2023-03-02T21:38:13.160Z,1.68
2023-03-02T21:40:43.092Z,1.64
2023-03-02T21:43:09.735Z,1.67
2023-03-02T21:45:37.367Z,1.62
2023-03-02T21:48:05.198Z,1.61
2023-03-02T21:50:35.662Z,1.54
2023-03-02T21:53:02.386Z,1.49
2023-03-02T21:55:30.285Z,1.44
2023-03-02T21:57:57.569Z,1.41
2023-03-02T22:00:30.742Z,1.41
2023-03-02T22:02:57.176Z,1.45
2023-03-02T22:05:23.694Z,1.42
2023-03-02T22:07:50.414Z,1.39
2023-03-02T22:10:42.554Z,1.39
2023-03-02T22:13:15.346Z,1.36
2023-03-02T22:15:41.869Z,1.34
2023-03-02T22:18:17.058Z,1.30
2023-03-02T22:20:46.086Z,1.25
2023-03-02T22:23:21.420Z,1.29
2023-03-02T22:25:53.675Z,1.29
2023-03-02T22:28:23.387Z,1.30
2023-03-02T22:30:51.544Z,1.31
2023-03-02T22:33:23.783Z,1.29
2023-03-02T22:35:53.140Z,1.24
2023-03-02T22:38:27.938Z,1.20
2023-03-02T22:40:55.431Z,1.22
2023-03-02T22:43:33.112Z,1.15
2023-03-02T22:46:10.711Z,1.08
2023-03-02T22:48:38.203Z,1.02
2023-03-02T22:51:15.378Z,0.98
2023-03-02T22:53:53.169Z,0.96
2023-03-02T22:56:34.152Z,0.90
2023-03-02T22:59:16.956Z,0.87
2023-03-02T23:01:45.012Z,0.81
2023-03-02T23:04:17.646Z,0.76
2023-03-02T23:06:47.723Z,0.74
2023-03-02T23:09:18.232Z,0.74
2023-03-02T23:11:45.004Z,0.71
2023-03-02T23:14:21.153Z,0.67
2023-03-02T23:16:56.948Z,0.63
2023-03-02T23:19:25.660Z,0.57
2023-03-02T23:21:52.111Z,0.49
2023-03-02T23:24:20.731Z,0.45
2023-03-02T23:26:49.407Z,0.43
2023-03-02T23:29:16.746Z,0.44
2023-03-02T23:31:43.865Z,0.40
2023-03-02T23:34:11.384Z,0.37
2023-03-02T23:36:38.129Z,0.36
2023-03-02T23:39:05.676Z,0.35
2023-03-02T23:41:32.322Z,0.30
2023-03-02T23:43:59.008Z,0.23
2023-03-02T23:46:25.814Z,0.14
2023-03-02T23:48:53.102Z,0.12
2023-03-02T23:51:19.779Z,0.15
2023-03-02T23:53:47.148Z,0.15
2023-03-02T23:56:13.651Z,0.12
2023-03-02T23:58:40.519Z,0.08
